KOAJ/OAJ METAR and TAF weather

Enter ICAO airport designator
Station Type Date Time Source
KOAJ METAR 2022/05/23 13:56 UTC NOAA

KOAJ 231356Z 02004KT 10SM CLR 26/22 A3015


Station Type Date Time Source
KOAJ Decoded METAR 2022/05/23 13:56 UTC NOAA

Jacksonville, Albert J Ellis Airport, NC, United States (KOAJ) 34-50N 077-37W
May 23, 2022 - 09:56 AM EDT / 2022.05.23 1356 UTC
Wind: from the NNE (020 degrees) at 5 MPH (4 KT):0
Visibility: 10 mile(s):0
Sky conditions: clear
Temperature: 78 F (26 C)
Dew Point: 71 F (22 C)
Relative Humidity: 78%
Pressure (altimeter): 30.15 in. Hg (1020 hPa)
ob: KOAJ 231356Z 02004KT 10SM CLR 26/22 A3015
cycle: 14

Station Type Date Time Source
KOAJ TAF 2022/05/23 14:42 UTC NOAA

TAF
AMD KOAJ 231340Z 2314/2412 VRB05KT P6SM BKN015
FM231500 VRB06KT P6SM SCT025
FM231900 16008KT P6SM SHRA VCTS SCT020 BKN040CB
FM240300 07008KT P6SM -SHRA SCT008 BKN015
FM240700 11008KT 6SM BR BKN008
AMD LTD TO CLD VIS AND WIND

Example: see airport list